Time;durP1;ratioP1;P1;durP2;ratioP2;P2;SDS_P1;SDS_P2;PMS_P1;PMS_P2;Temp;Humidity;BMP_temperature;BMP_pressure;BME280_temperature;BME280_humidity;BME280_pressure;Samples;Min_cycle;Max_cycle;Signal;HPM_P1;HPM_P2
2022/09/24 00:00:07;;;;;;;0.80;0.60;;;;;;;;;;5083849;28;20330;-58
2022/09/24 00:02:32;;;;;;;0.70;0.57;;;;;;;;;;5088024;28;20044;-59
2022/09/24 00:04:58;;;;;;;0.77;0.50;;;;;;;;;;5067168;28;20045;-59
2022/09/24 00:07:23;;;;;;;0.83;0.50;;;;;;;;;;5072464;28;20294;-59
2022/09/24 00:09:48;;;;;;;0.90;0.60;;;;;;;;;;5067960;28;20037;-59
2022/09/24 00:12:14;;;;;;;0.70;0.50;;;;;;;;;;5086696;28;20603;-58
2022/09/24 00:14:39;;;;;;;0.82;0.60;;;;;;;;;;5080132;28;20110;-58
2022/09/24 00:17:04;;;;;;;0.60;0.50;;;;;;;;;;5086774;28;20048;-58
2022/09/24 00:19:29;;;;;;;0.73;0.60;;;;;;;;;;5079616;28;20281;-59
2022/09/24 00:21:55;;;;;;;0.57;0.47;;;;;;;;;;5069193;28;20298;-60
2022/09/24 00:27:05;;;;;;;1.17;0.60;;;;;;;;;;5090141;28;20428;-59
2022/09/24 00:29:34;;;;;;;0.68;0.60;;;;;;;;;;5089050;28;20040;-59
2022/09/24 00:31:59;;;;;;;0.55;0.40;;;;;;;;;;5069774;28;20048;-58
2022/09/24 00:34:24;;;;;;;0.70;0.60;;;;;;;;;;5081127;28;20062;-58
2022/09/24 00:36:52;;;;;;;1.30;0.70;;;;;;;;;;5084980;28;20056;-58
2022/09/24 00:39:17;;;;;;;0.60;0.60;;;;;;;;;;5082009;28;20319;-59
2022/09/24 00:41:47;;;;;;;0.57;0.53;;;;;;;;;;5079363;28;20039;-59
2022/09/24 00:44:33;;;;;;;0.50;0.50;;;;;;;;;;5077830;28;20295;-59
2022/09/24 00:46:58;;;;;;;0.50;0.50;;;;;;;;;;5066365;28;20522;-59
2022/09/24 00:49:23;;;;;;;0.60;0.50;;;;;;;;;;5088281;28;20040;-59
2022/09/24 00:51:50;;;;;;;0.70;0.50;;;;;;;;;;5087153;28;20363;-59
2022/09/24 00:54:18;;;;;;;0.50;0.40;;;;;;;;;;5081331;28;20789;-59
2022/09/24 00:56:44;;;;;;;0.88;0.60;;;;;;;;;;5063538;28;20041;-59
2022/09/24 00:59:12;;;;;;;0.88;0.57;;;;;;;;;;5088689;28;20134;-59
2022/09/24 01:01:38;;;;;;;0.93;0.68;;;;;;;;;;5074827;28;20101;-59
2022/09/24 01:04:05;;;;;;;0.90;0.60;;;;;;;;;;5059074;28;20040;-59
2022/09/24 01:06:30;;;;;;;0.80;0.60;;;;;;;;;;5055345;28;20052;-59
2022/09/24 01:08:57;;;;;;;0.50;0.47;;;;;;;;;;5030515;28;20885;-59
2022/09/24 01:11:34;;;;;;;0.77;0.50;;;;;;;;;;5056568;28;20526;-59
2022/09/24 01:14:18;;;;;;;0.50;0.43;;;;;;;;;;5076847;28;20036;-59
2022/09/24 01:16:52;;;;;;;0.88;0.60;;;;;;;;;;5074572;28;20068;-60
2022/09/24 01:19:32;;;;;;;0.50;0.45;;;;;;;;;;5058203;28;20091;-59
2022/09/24 01:22:02;;;;;;;0.90;0.60;;;;;;;;;;5046283;28;20535;-59
2022/09/24 01:24:36;;;;;;;0.45;0.40;;;;;;;;;;5088061;28;20127;-59
2022/09/24 01:27:13;;;;;;;0.60;0.60;;;;;;;;;;5066084;28;20055;-60
2022/09/24 01:29:40;;;;;;;0.50;0.40;;;;;;;;;;5071375;28;20094;-60
2022/09/24 01:32:09;;;;;;;0.63;0.52;;;;;;;;;;5089229;28;20046;-59
2022/09/24 01:34:41;;;;;;;0.55;0.50;;;;;;;;;;5076050;28;20040;-59
2022/09/24 01:37:07;;;;;;;0.55;0.50;;;;;;;;;;5067691;28;20127;-60
2022/09/24 01:39:34;;;;;;;0.65;0.50;;;;;;;;;;5053006;28;20517;-59
2022/09/24 01:42:00;;;;;;;0.47;0.40;;;;;;;;;;5072647;28;20080;-59
2022/09/24 01:44:25;;;;;;;0.40;0.40;;;;;;;;;;5070908;28;20068;-60
2022/09/24 01:46:51;;;;;;;0.77;0.63;;;;;;;;;;5064750;28;20048;-60
2022/09/24 01:49:16;;;;;;;0.70;0.55;;;;;;;;;;5075281;28;20098;-58
2022/09/24 01:51:43;;;;;;;0.43;0.43;;;;;;;;;;5076625;28;20048;-58
2022/09/24 01:54:27;;;;;;;0.90;0.60;;;;;;;;;;5077061;28;20052;-58
2022/09/24 01:57:13;;;;;;;1.10;0.77;;;;;;;;;;5088218;28;20040;-59
2022/09/24 01:59:43;;;;;;;0.52;0.50;;;;;;;;;;5063929;28;20059;-58
2022/09/24 02:02:22;;;;;;;0.55;0.40;;;;;;;;;;5074548;28;20135;-59
2022/09/24 02:04:51;;;;;;;0.50;0.50;;;;;;;;;;5083829;28;20036;-59
2022/09/24 02:07:25;;;;;;;0.55;0.40;;;;;;;;;;5075157;28;20059;-59
2022/09/24 02:09:50;;;;;;;0.65;0.50;;;;;;;;;;5071211;28;20051;-59
2022/09/24 02:12:28;;;;;;;0.52;0.40;;;;;;;;;;5068807;28;20048;-59
2022/09/24 02:15:00;;;;;;;0.40;0.40;;;;;;;;;;5086382;28;20032;-59
2022/09/24 02:17:29;;;;;;;0.82;0.52;;;;;;;;;;5067396;28;20095;-59
2022/09/24 02:19:56;;;;;;;0.50;0.50;;;;;;;;;;5088705;28;20048;-60
2022/09/24 02:22:22;;;;;;;0.40;0.40;;;;;;;;;;5087779;28;20032;-60
2022/09/24 02:24:49;;;;;;;0.47;0.40;;;;;;;;;;5075612;28;20059;-60
2022/09/24 02:27:15;;;;;;;0.77;0.55;;;;;;;;;;5079230;28;20059;-60
2022/09/24 02:29:40;;;;;;;0.50;0.40;;;;;;;;;;5088079;28;20040;-60
2022/09/24 02:32:07;;;;;;;0.95;0.55;;;;;;;;;;5073605;28;20053;-60
2022/09/24 02:34:37;;;;;;;0.93;0.57;;;;;;;;;;5081099;28;20407;-60
2022/09/24 02:37:09;;;;;;;0.43;0.40;;;;;;;;;;5073694;28;20068;-60
2022/09/24 02:39:35;;;;;;;0.65;0.50;;;;;;;;;;5085842;28;20058;-60
2022/09/24 02:42:02;;;;;;;0.60;0.50;;;;;;;;;;5079271;28;20147;-60
2022/09/24 02:44:29;;;;;;;0.40;0.40;;;;;;;;;;5086458;28;20065;-60
2022/09/24 02:46:55;;;;;;;0.60;0.50;;;;;;;;;;5089183;28;20054;-60
2022/09/24 02:49:20;;;;;;;0.70;0.50;;;;;;;;;;5071130;28;20041;-60
2022/09/24 02:51:45;;;;;;;0.40;0.37;;;;;;;;;;5082090;28;20254;-60
2022/09/24 02:54:10;;;;;;;0.50;0.40;;;;;;;;;;5068548;28;20037;-60
2022/09/24 02:56:36;;;;;;;0.40;0.40;;;;;;;;;;5086218;28;20044;-60
2022/09/24 02:59:01;;;;;;;0.30;0.30;;;;;;;;;;5091965;28;20044;-60
2022/09/24 03:01:29;;;;;;;0.52;0.50;;;;;;;;;;5088798;28;20411;-60
2022/09/24 03:03:55;;;;;;;0.45;0.40;;;;;;;;;;5091676;28;20059;-60
2022/09/24 03:06:20;;;;;;;0.60;0.50;;;;;;;;;;5090967;28;20048;-60
2022/09/24 03:08:45;;;;;;;0.60;0.40;;;;;;;;;;5084354;28;20037;-60
2022/09/24 03:11:11;;;;;;;0.47;0.43;;;;;;;;;;5069977;28;20814;-60
2022/09/24 03:13:37;;;;;;;0.40;0.40;;;;;;;;;;5082592;28;20538;-60
2022/09/24 03:16:03;;;;;;;0.57;0.47;;;;;;;;;;5082252;28;20495;-59
2022/09/24 03:18:28;;;;;;;0.40;0.40;;;;;;;;;;5085920;28;20428;-59
2022/09/24 03:20:57;;;;;;;0.50;0.40;;;;;;;;;;5090705;28;20101;-59
2022/09/24 03:23:22;;;;;;;0.52;0.47;;;;;;;;;;5083063;28;20072;-61
2022/09/24 03:25:47;;;;;;;0.50;0.30;;;;;;;;;;5085540;28;20071;-59
2022/09/24 03:28:16;;;;;;;0.57;0.45;;;;;;;;;;5060444;28;20387;-59
2022/09/24 03:31:00;;;;;;;0.32;0.32;;;;;;;;;;5070536;28;20519;-58
2022/09/24 03:33:29;;;;;;;0.82;0.50;;;;;;;;;;5086172;28;20032;-58
2022/09/24 03:36:02;;;;;;;0.40;0.40;;;;;;;;;;5090600;28;20051;-59
2022/09/24 03:38:28;;;;;;;0.35;0.35;;;;;;;;;;5069921;28;20048;-59
2022/09/24 03:40:53;;;;;;;0.60;0.50;;;;;;;;;;5080019;28;20119;-59
2022/09/24 03:43:18;;;;;;;0.57;0.50;;;;;;;;;;5084931;28;20127;-59
2022/09/24 03:45:44;;;;;;;0.43;0.38;;;;;;;;;;5084650;28;20094;-60
2022/09/24 03:48:09;;;;;;;0.30;0.30;;;;;;;;;;5065407;28;20064;-60
2022/09/24 03:50:35;;;;;;;0.20;0.20;;;;;;;;;;5084285;28;20044;-60
2022/09/24 03:53:00;;;;;;;0.52;0.40;;;;;;;;;;5088861;28;20048;-60
2022/09/24 03:55:25;;;;;;;0.30;0.30;;;;;;;;;;5085084;28;20408;-60
2022/09/24 03:57:51;;;;;;;0.50;0.40;;;;;;;;;;5079516;28;20395;-60
2022/09/24 04:00:16;;;;;;;0.63;0.40;;;;;;;;;;5085275;28;20355;-60
2022/09/24 04:02:41;;;;;;;0.50;0.45;;;;;;;;;;5076396;28;20046;-59
2022/09/24 04:05:07;;;;;;;0.32;0.32;;;;;;;;;;5087961;28;20043;-59
2022/09/24 04:07:32;;;;;;;0.77;0.60;;;;;;;;;;5089153;28;20048;-60
2022/09/24 04:09:57;;;;;;;0.40;0.40;;;;;;;;;;5090065;28;20036;-60
2022/09/24 04:12:25;;;;;;;0.70;0.40;;;;;;;;;;5069056;28;20563;-59
2022/09/24 04:14:50;;;;;;;0.30;0.30;;;;;;;;;;5090717;28;20134;-60
2022/09/24 04:17:16;;;;;;;0.30;0.30;;;;;;;;;;5087248;28;20119;-60
2022/09/24 04:19:42;;;;;;;0.47;0.43;;;;;;;;;;5067644;28;20818;-59
2022/09/24 04:22:07;;;;;;;0.68;0.30;;;;;;;;;;5084577;28;20132;-60
2022/09/24 04:24:33;;;;;;;0.38;0.30;;;;;;;;;;5074359;28;20053;-60
2022/09/24 04:26:58;;;;;;;0.57;0.35;;;;;;;;;;5079713;28;20041;-60
2022/09/24 04:29:23;;;;;;;0.40;0.40;;;;;;;;;;5081741;28;20040;-58
2022/09/24 04:31:48;;;;;;;0.40;0.30;;;;;;;;;;5082862;28;20066;-58
2022/09/24 04:34:14;;;;;;;1.10;0.47;;;;;;;;;;5070850;28;20513;-59
2022/09/24 04:36:39;;;;;;;0.60;0.43;;;;;;;;;;5082743;28;20092;-59
2022/09/24 04:39:05;;;;;;;0.33;0.30;;;;;;;;;;5084472;28;20033;-59
2022/09/24 04:41:30;;;;;;;0.50;0.32;;;;;;;;;;5082819;28;20051;-60
2022/09/24 04:43:56;;;;;;;0.40;0.40;;;;;;;;;;5088460;28;20121;-59
2022/09/24 04:46:21;;;;;;;0.70;0.28;;;;;;;;;;5065237;28;20132;-59
2022/09/24 04:48:46;;;;;;;0.40;0.30;;;;;;;;;;5077365;28;20554;-59
2022/09/24 04:51:18;;;;;;;0.65;0.40;;;;;;;;;;5083008;28;20283;-59
2022/09/24 04:53:46;;;;;;;0.30;0.30;;;;;;;;;;5090475;28;20043;-59
2022/09/24 04:56:12;;;;;;;0.30;0.30;;;;;;;;;;5069486;28;20101;-59
2022/09/24 04:58:37;;;;;;;0.35;0.35;;;;;;;;;;5089089;28;20048;-59
2022/09/24 05:01:03;;;;;;;0.63;0.40;;;;;;;;;;5082351;28;20098;-59
2022/09/24 05:03:28;;;;;;;0.50;0.37;;;;;;;;;;5085417;28;20040;-59
2022/09/24 05:05:54;;;;;;;0.28;0.28;;;;;;;;;;5083073;28;20290;-59
2022/09/24 05:08:19;;;;;;;0.38;0.35;;;;;;;;;;5089827;28;20516;-59
2022/09/24 05:10:44;;;;;;;0.40;0.40;;;;;;;;;;5081373;28;20050;-59
2022/09/24 05:13:10;;;;;;;0.30;0.30;;;;;;;;;;5081581;28;20055;-59
2022/09/24 05:15:35;;;;;;;0.33;0.33;;;;;;;;;;5082909;28;20032;-59
2022/09/24 05:18:02;;;;;;;0.38;0.38;;;;;;;;;;5089917;28;20314;-59
2022/09/24 05:20:27;;;;;;;0.28;0.28;;;;;;;;;;5081072;28;20390;-59
2022/09/24 05:22:53;;;;;;;0.70;0.40;;;;;;;;;;5088345;28;20093;-59
2022/09/24 05:25:19;;;;;;;0.30;0.30;;;;;;;;;;5087211;28;20467;-59
2022/09/24 05:27:49;;;;;;;0.80;0.40;;;;;;;;;;5074805;28;20097;-58
2022/09/24 05:30:14;;;;;;;0.47;0.30;;;;;;;;;;5087613;28;20044;-58
2022/09/24 05:32:40;;;;;;;0.73;0.50;;;;;;;;;;5082360;28;20377;-58
2022/09/24 05:35:07;;;;;;;0.50;0.40;;;;;;;;;;5072257;28;20049;-58
2022/09/24 05:37:33;;;;;;;0.17;0.17;;;;;;;;;;5079893;28;20047;-58
2022/09/24 05:40:46;;;;;;;0.38;0.30;;;;;;;;;;5077608;28;20044;-58
2022/09/24 05:42:45;;;;;;;0.50;0.40;;;;;;;;;;5084713;28;20397;-58
2022/09/24 05:45:10;;;;;;;0.43;0.30;;;;;;;;;;5072620;28;20043;-59
2022/09/24 05:47:36;;;;;;;0.50;0.40;;;;;;;;;;5071703;28;20044;-59
2022/09/24 05:50:01;;;;;;;0.20;0.20;;;;;;;;;;5046123;28;20493;-59
2022/09/24 05:52:26;;;;;;;0.30;0.20;;;;;;;;;;5076923;28;20719;-59
2022/09/24 05:54:51;;;;;;;0.33;0.33;;;;;;;;;;5077568;28;20369;-59
2022/09/24 05:57:17;;;;;;;0.30;0.30;;;;;;;;;;5074184;28;20044;-59
2022/09/24 05:59:42;;;;;;;0.30;0.30;;;;;;;;;;5068222;28;20139;-59
2022/09/24 06:02:07;;;;;;;0.30;0.30;;;;;;;;;;5053643;28;20320;-59
2022/09/24 06:04:33;;;;;;;0.60;0.40;;;;;;;;;;5051742;28;20051;-59
2022/09/24 06:06:58;;;;;;;0.33;0.30;;;;;;;;;;5068286;28;20856;-59
2022/09/24 06:09:23;;;;;;;0.20;0.20;;;;;;;;;;5064072;28;20044;-59
2022/09/24 06:11:49;;;;;;;0.40;0.30;;;;;;;;;;5084650;28;20054;-59
2022/09/24 06:14:15;;;;;;;0.40;0.30;;;;;;;;;;5078026;28;20051;-59
2022/09/24 06:16:40;;;;;;;0.40;0.30;;;;;;;;;;5071508;28;20130;-58
2022/09/24 06:19:05;;;;;;;0.40;0.30;;;;;;;;;;5083915;28;20128;-59
2022/09/24 06:21:30;;;;;;;0.37;0.37;;;;;;;;;;5082769;28;20317;-59
2022/09/24 06:23:56;;;;;;;0.40;0.30;;;;;;;;;;5077210;28;20514;-59
2022/09/24 06:26:22;;;;;;;0.30;0.30;;;;;;;;;;5071125;28;20045;-59
2022/09/24 06:28:47;;;;;;;0.30;0.30;;;;;;;;;;5052040;28;20789;-59
2022/09/24 06:31:12;;;;;;;0.40;0.30;;;;;;;;;;5082285;28;20516;-59
2022/09/24 06:33:39;;;;;;;0.30;0.30;;;;;;;;;;5080287;28;20270;-59
2022/09/24 06:36:04;;;;;;;0.60;0.40;;;;;;;;;;5066532;28;20037;-59
2022/09/24 06:38:30;;;;;;;0.30;0.30;;;;;;;;;;5086226;28;20093;-59
2022/09/24 06:40:59;;;;;;;0.40;0.30;;;;;;;;;;5088183;28;20043;-59
2022/09/24 06:43:24;;;;;;;0.40;0.30;;;;;;;;;;5068871;28;20086;-59
2022/09/24 06:45:50;;;;;;;0.30;0.30;;;;;;;;;;5087661;28;20044;-59
2022/09/24 06:48:16;;;;;;;0.45;0.30;;;;;;;;;;5087377;28;20369;-59
2022/09/24 06:50:44;;;;;;;0.32;0.30;;;;;;;;;;5051003;28;20429;-59
2022/09/24 06:53:09;;;;;;;0.40;0.40;;;;;;;;;;5071896;28;20061;-60
2022/09/24 06:55:35;;;;;;;0.40;0.40;;;;;;;;;;5087015;28;20177;-60
2022/09/24 06:58:03;;;;;;;0.50;0.40;;;;;;;;;;5086785;28;20058;-60
2022/09/24 07:00:28;;;;;;;0.40;0.30;;;;;;;;;;5083272;28;20070;-60
2022/09/24 07:02:54;;;;;;;0.37;0.37;;;;;;;;;;5078784;28;20048;-60
2022/09/24 07:05:19;;;;;;;0.60;0.43;;;;;;;;;;5077002;28;20282;-60
2022/09/24 07:07:44;;;;;;;0.40;0.40;;;;;;;;;;5076077;28;20303;-60
2022/09/24 07:10:09;;;;;;;0.30;0.30;;;;;;;;;;5071513;28;20289;-60
2022/09/24 07:12:35;;;;;;;0.30;0.30;;;;;;;;;;5087817;28;20450;-60
2022/09/24 07:15:01;;;;;;;0.30;0.28;;;;;;;;;;5080435;28;20335;-60
2022/09/24 07:17:26;;;;;;;0.20;0.20;;;;;;;;;;5069009;28;20127;-60
2022/09/24 07:19:52;;;;;;;0.38;0.30;;;;;;;;;;5077978;28;20616;-60
2022/09/24 07:22:18;;;;;;;0.57;0.40;;;;;;;;;;5072072;28;20045;-60
2022/09/24 07:24:43;;;;;;;0.40;0.40;;;;;;;;;;5082807;28;20122;-60
2022/09/24 07:27:09;;;;;;;0.40;0.40;;;;;;;;;;5059283;28;20137;-58
2022/09/24 07:29:34;;;;;;;0.40;0.30;;;;;;;;;;5057332;28;20045;-59
2022/09/24 07:31:59;;;;;;;0.60;0.30;;;;;;;;;;5086593;28;20411;-59
2022/09/24 07:34:25;;;;;;;0.30;0.30;;;;;;;;;;5082348;28;20279;-59
2022/09/24 07:36:50;;;;;;;0.30;0.30;;;;;;;;;;5089054;28;20051;-59
2022/09/24 07:39:15;;;;;;;0.63;0.47;;;;;;;;;;5088307;28;20067;-59
2022/09/24 07:41:41;;;;;;;0.40;0.40;;;;;;;;;;5061586;28;20481;-59
2022/09/24 07:44:07;;;;;;;0.30;0.30;;;;;;;;;;5082844;28;20052;-59
2022/09/24 07:46:32;;;;;;;0.38;0.38;;;;;;;;;;5077691;28;20135;-59
2022/09/24 07:48:57;;;;;;;0.40;0.38;;;;;;;;;;5079084;28;20139;-59
2022/09/24 07:51:24;;;;;;;0.47;0.45;;;;;;;;;;5089045;28;20480;-60
2022/09/24 07:53:49;;;;;;;0.40;0.30;;;;;;;;;;5090995;28;20048;-59
2022/09/24 07:56:15;;;;;;;0.52;0.35;;;;;;;;;;5088939;28;20047;-59
2022/09/24 07:58:40;;;;;;;0.68;0.47;;;;;;;;;;5090710;28;20040;-59
2022/09/24 08:01:05;;;;;;;0.30;0.30;;;;;;;;;;5071080;28;20033;-59
2022/09/24 08:03:31;;;;;;;0.40;0.30;;;;;;;;;;5080315;28;20044;-60
2022/09/24 08:05:58;;;;;;;0.30;0.30;;;;;;;;;;5078242;28;20737;-59
2022/09/24 08:08:24;;;;;;;0.50;0.40;;;;;;;;;;5088240;28;20064;-59
2022/09/24 08:10:49;;;;;;;0.40;0.40;;;;;;;;;;5082668;28;20079;-58
2022/09/24 08:13:15;;;;;;;0.30;0.30;;;;;;;;;;5086245;28;20062;-59
2022/09/24 08:15:40;;;;;;;0.50;0.40;;;;;;;;;;5081453;28;20439;-59
2022/09/24 08:18:05;;;;;;;0.38;0.38;;;;;;;;;;5085690;28;20131;-60
2022/09/24 08:20:33;;;;;;;0.25;0.25;;;;;;;;;;5068802;28;20071;-60
2022/09/24 08:23:02;;;;;;;0.30;0.30;;;;;;;;;;5084943;28;20075;-60
2022/09/24 08:25:27;;;;;;;0.68;0.40;;;;;;;;;;5088171;28;20036;-61
2022/09/24 08:27:52;;;;;;;0.37;0.37;;;;;;;;;;5078941;28;20106;-60
2022/09/24 08:30:20;;;;;;;0.33;0.33;;;;;;;;;;5071415;28;20102;-60
2022/09/24 08:32:48;;;;;;;0.32;0.32;;;;;;;;;;5079304;28;20048;-60
2022/09/24 08:35:14;;;;;;;0.30;0.30;;;;;;;;;;5068131;28;20058;-60
2022/09/24 08:37:40;;;;;;;0.35;0.35;;;;;;;;;;5078173;28;20400;-59
2022/09/24 08:40:05;;;;;;;0.20;0.20;;;;;;;;;;5088886;28;20529;-59
2022/09/24 08:42:43;;;;;;;0.30;0.30;;;;;;;;;;5072513;28;20455;-59
2022/09/24 08:48:13;;;;;;;0.40;0.40;;;;;;;;;;5076064;28;20423;-60
2022/09/24 08:50:42;;;;;;;0.30;0.30;;;;;;;;;;5072060;28;21440;-59
2022/09/24 08:53:14;;;;;;;0.57;0.40;;;;;;;;;;5077872;28;20037;-59
2022/09/24 08:55:39;;;;;;;;;;;;;;;;;;5071011;28;20049;-59
2022/09/24 08:58:05;;;;;;;0.30;0.30;;;;;;;;;;5052397;28;19917;-60
2022/09/24 09:00:35;;;;;;;0.30;0.30;;;;;;;;;;5073839;28;20048;-59
2022/09/24 09:03:05;;;;;;;0.40;0.40;;;;;;;;;;5087640;28;20429;-59
2022/09/24 09:05:37;;;;;;;0.50;0.40;;;;;;;;;;5076063;28;20045;-59
2022/09/24 09:08:29;;;;;;;0.40;0.40;;;;;;;;;;5087427;28;20139;-59
2022/09/24 09:10:57;;;;;;;0.43;0.40;;;;;;;;;;5086132;28;20496;-59
2022/09/24 09:13:28;;;;;;;0.30;0.30;;;;;;;;;;5089201;28;20408;-59
2022/09/24 09:16:02;;;;;;;0.40;0.40;;;;;;;;;;5089556;28;20040;-59
2022/09/24 09:18:36;;;;;;;0.65;0.43;;;;;;;;;;5073517;28;20040;-59
2022/09/24 09:21:11;;;;;;;0.40;0.40;;;;;;;;;;5084267;28;20040;-60
2022/09/24 09:23:40;;;;;;;0.43;0.43;;;;;;;;;;5075095;28;20036;-59
2022/09/24 09:26:07;;;;;;;0.40;0.40;;;;;;;;;;5088382;28;20044;-59
2022/09/24 09:28:33;;;;;;;0.45;0.45;;;;;;;;;;5085593;28;20101;-58
2022/09/24 09:30:58;;;;;;;0.60;0.50;;;;;;;;;;5071113;28;20438;-58
2022/09/24 09:33:26;;;;;;;0.40;0.40;;;;;;;;;;5087450;28;20286;-59
2022/09/24 09:36:00;;;;;;;0.40;0.40;;;;;;;;;;5088455;28;20507;-59
2022/09/24 09:38:43;;;;;;;0.60;0.40;;;;;;;;;;5088907;28;20093;-59
2022/09/24 09:41:22;;;;;;;0.40;0.40;;;;;;;;;;5087840;28;20048;-59
2022/09/24 09:43:48;;;;;;;0.40;0.40;;;;;;;;;;5081437;28;20048;-59
2022/09/24 09:46:24;;;;;;;0.68;0.50;;;;;;;;;;5089086;28;20568;-59
2022/09/24 09:48:54;;;;;;;0.55;0.50;;;;;;;;;;5071278;28;20141;-59
2022/09/24 09:51:23;;;;;;;0.73;0.50;;;;;;;;;;5069521;28;20049;-59
2022/09/24 09:53:55;;;;;;;0.45;0.45;;;;;;;;;;5059074;28;20136;-59
2022/09/24 09:56:21;;;;;;;;;;;;;;;;;;5085594;28;20059;-59
2022/09/24 09:58:51;;;;;;;0.50;0.45;;;;;;;;;;5088225;28;19923;-59
2022/09/24 10:01:17;;;;;;;0.50;0.50;;;;;;;;;;5087833;28;20519;-58
2022/09/24 10:03:45;;;;;;;0.40;0.40;;;;;;;;;;5088096;28;20094;-58
2022/09/24 10:06:24;;;;;;;0.50;0.50;;;;;;;;;;5073237;28;20550;-59
2022/09/24 10:08:49;;;;;;;0.47;0.40;;;;;;;;;;5071032;28;20443;-59
2022/09/24 10:11:16;;;;;;;0.70;0.40;;;;;;;;;;5076383;28;20048;-59
2022/09/24 10:13:41;;;;;;;0.43;0.40;;;;;;;;;;5077825;28;20784;-60
2022/09/24 10:16:08;;;;;;;0.88;0.60;;;;;;;;;;5078241;28;20036;-60
2022/09/24 10:18:35;;;;;;;0.40;0.40;;;;;;;;;;5068649;28;20532;-60
2022/09/24 10:21:02;;;;;;;0.43;0.40;;;;;;;;;;5081549;28;20048;-60
2022/09/24 10:23:36;;;;;;;0.52;0.50;;;;;;;;;;5082024;28;20048;-60
2022/09/24 10:26:02;;;;;;;0.63;0.50;;;;;;;;;;5084561;28;20048;-60
2022/09/24 10:31:26;;;;;;;0.38;0.38;;;;;;;;;;5077608;28;20098;-60
2022/09/24 10:33:54;;;;;;;0.55;0.40;;;;;;;;;;5078996;28;20068;-60
2022/09/24 10:36:24;;;;;;;0.75;0.63;;;;;;;;;;5082256;28;20032;-60
2022/09/24 10:39:00;;;;;;;0.30;0.30;;;;;;;;;;5077978;28;20512;-60
2022/09/24 10:41:27;;;;;;;0.40;0.40;;;;;;;;;;5069864;28;20053;-58
2022/09/24 10:43:53;;;;;;;0.45;0.45;;;;;;;;;;5081948;28;20471;-59
2022/09/24 10:46:35;;;;;;;0.57;0.43;;;;;;;;;;5071701;28;20083;-59
2022/09/24 10:49:16;;;;;;;0.50;0.50;;;;;;;;;;5087979;28;20036;-59
2022/09/24 10:51:50;;;;;;;0.40;0.40;;;;;;;;;;5088254;28;20052;-59
2022/09/24 10:54:22;;;;;;;0.35;0.35;;;;;;;;;;5087729;28;20138;-59
2022/09/24 10:56:50;;;;;;;0.80;0.60;;;;;;;;;;5076845;28;20523;-59
2022/09/24 10:59:42;;;;;;;0.45;0.38;;;;;;;;;;5074619;28;20040;-60
2022/09/24 11:02:16;;;;;;;0.82;0.50;;;;;;;;;;5080855;28;20051;-60
2022/09/24 11:04:59;;;;;;;0.40;0.40;;;;;;;;;;5083187;28;20036;-60
2022/09/24 11:07:24;;;;;;;;;;;;;;;;;;5085103;28;20048;-60
2022/09/24 11:09:55;;;;;;;0.50;0.50;;;;;;;;;;5088095;28;19961;-60
2022/09/24 11:12:26;;;;;;;0.90;0.50;;;;;;;;;;5090266;28;20064;-60
2022/09/24 11:14:52;;;;;;;0.60;0.50;;;;;;;;;;5073671;28;20041;-58
2022/09/24 11:17:32;;;;;;;0.63;0.50;;;;;;;;;;5084264;28;20085;-59
2022/09/24 11:20:03;;;;;;;0.57;0.50;;;;;;;;;;5089747;28;20044;-59
2022/09/24 11:22:28;;;;;;;0.63;0.40;;;;;;;;;;5091472;28;20031;-59
2022/09/24 11:24:53;;;;;;;0.50;0.40;;;;;;;;;;5090822;28;20032;-59
2022/09/24 11:27:32;;;;;;;0.60;0.50;;;;;;;;;;5088999;28;20044;-60
2022/09/24 11:30:21;;;;;;;0.30;0.30;;;;;;;;;;5060347;28;20136;-60
2022/09/24 11:32:58;;;;;;;0.50;0.50;;;;;;;;;;5062675;28;20051;-60
2022/09/24 11:35:42;;;;;;;1.02;0.50;;;;;;;;;;5087881;28;20048;-60
2022/09/24 11:38:13;;;;;;;0.52;0.50;;;;;;;;;;5089561;28;20032;-60
2022/09/24 11:40:41;;;;;;;0.50;0.50;;;;;;;;;;5087830;28;20041;-60
2022/09/24 11:43:18;;;;;;;0.60;0.40;;;;;;;;;;5079271;28;20040;-59
2022/09/24 11:45:58;;;;;;;0.45;0.45;;;;;;;;;;5079754;28;20048;-60
2022/09/24 11:48:24;;;;;;;0.80;0.40;;;;;;;;;;5080037;28;20044;-59
2022/09/24 11:50:57;;;;;;;0.63;0.40;;;;;;;;;;5090929;28;20181;-58
2022/09/24 11:53:34;;;;;;;0.68;0.50;;;;;;;;;;5082397;28;20047;-58
2022/09/24 11:56:11;;;;;;;0.30;0.30;;;;;;;;;;5058712;28;20045;-58
2022/09/24 11:58:41;;;;;;;0.77;0.60;;;;;;;;;;5083350;28;20045;-58
2022/09/24 12:01:09;;;;;;;0.55;0.50;;;;;;;;;;5063595;28;20162;-60
2022/09/24 12:03:40;;;;;;;0.40;0.40;;;;;;;;;;5079197;28;20028;-59
2022/09/24 12:06:08;;;;;;;0.63;0.50;;;;;;;;;;5083122;28;20088;-59
2022/09/24 12:08:52;;;;;;;0.90;0.52;;;;;;;;;;5085128;28;20038;-58
2022/09/24 12:11:19;;;;;;;2.63;0.60;;;;;;;;;;5070818;28;20127;-58
2022/09/24 12:13:45;;;;;;;0.85;0.40;;;;;;;;;;5066937;28;20052;-59
2022/09/24 12:16:13;;;;;;;0.52;0.45;;;;;;;;;;5082559;28;20510;-59
2022/09/24 12:18:59;;;;;;;0.60;0.50;;;;;;;;;;5086266;28;20130;-58
2022/09/24 12:21:26;;;;;;;0.68;0.50;;;;;;;;;;5026678;28;20115;-59
2022/09/24 12:23:54;;;;;;;0.40;0.40;;;;;;;;;;5088175;28;20046;-59
2022/09/24 12:26:21;;;;;;;0.57;0.50;;;;;;;;;;5077352;28;20425;-59
2022/09/24 12:34:52;;;;;;;1.23;0.68;;;;;;;;;;5076212;28;20059;-60
2022/09/24 12:37:20;;;;;;;1.58;0.50;;;;;;;;;;5083155;28;20059;-58
2022/09/24 12:39:46;;;;;;;0.68;0.50;;;;;;;;;;5077872;28;20517;-58
2022/09/24 12:42:11;;;;;;;1.07;0.50;;;;;;;;;;5059834;28;20600;-58
2022/09/24 12:44:37;;;;;;;0.60;0.40;;;;;;;;;;5065930;28;20049;-58
2022/09/24 12:47:03;;;;;;;0.55;0.50;;;;;;;;;;5081733;28;20436;-58
2022/09/24 12:49:30;;;;;;;0.95;0.50;;;;;;;;;;5068146;28;20041;-57
2022/09/24 12:51:59;;;;;;;0.40;0.40;;;;;;;;;;5076048;28;20689;-57
2022/09/24 12:54:35;;;;;;;0.80;0.40;;;;;;;;;;5075434;28;20087;-58
2022/09/24 12:57:03;;;;;;;0.63;0.50;;;;;;;;;;5065991;28;20462;-57
2022/09/24 12:59:29;;;;;;;0.70;0.60;;;;;;;;;;5080416;28;20101;-59
2022/09/24 13:02:05;;;;;;;2.00;0.77;;;;;;;;;;5066766;28;20048;-58
2022/09/24 13:04:30;;;;;;;3.50;1.77;;;;;;;;;;5084410;28;20399;-59
2022/09/24 13:06:56;;;;;;;3.67;1.48;;;;;;;;;;5075751;28;20458;-61
2022/09/24 13:09:39;;;;;;;3.53;1.42;;;;;;;;;;5056103;28;20037;-58
2022/09/24 13:12:05;;;;;;;3.40;1.60;;;;;;;;;;5073815;28;20079;-57
2022/09/24 13:14:32;;;;;;;3.67;1.52;;;;;;;;;;5071264;28;20076;-58
2022/09/24 13:16:57;;;;;;;2.88;1.65;;;;;;;;;;5069571;28;20423;-58
2022/09/24 13:19:43;;;;;;;3.08;1.50;;;;;;;;;;5085694;28;20415;-59
2022/09/24 13:22:29;;;;;;;5.47;1.70;;;;;;;;;;5079117;28;20467;-58
2022/09/24 13:25:07;;;;;;;2.85;1.25;;;;;;;;;;5041866;28;20075;-56
2022/09/24 13:27:37;;;;;;;2.65;1.48;;;;;;;;;;5078059;28;20036;-76
2022/09/24 13:30:08;;;;;;;4.45;1.58;;;;;;;;;;5075809;28;20477;-57
2022/09/24 13:32:37;;;;;;;2.72;1.20;;;;;;;;;;5078095;28;20055;-56
2022/09/24 13:35:05;;;;;;;4.57;1.40;;;;;;;;;;5085691;28;20059;-58
2022/09/24 13:37:33;;;;;;;5.30;1.10;;;;;;;;;;5077133;28;20465;-58
2022/09/24 13:40:02;;;;;;;4.55;1.20;;;;;;;;;;5059891;28;20037;-57
2022/09/24 13:42:35;;;;;;;2.83;1.20;;;;;;;;;;5069855;28;20052;-60
2022/09/24 13:45:02;;;;;;;2.00;0.95;;;;;;;;;;5055739;28;20091;-57
2022/09/24 13:47:30;;;;;;;1.98;1.00;;;;;;;;;;5071814;28;20051;-59
2022/09/24 13:50:05;;;;;;;1.95;0.93;;;;;;;;;;5080589;28;20500;-60
2022/09/24 13:52:34;;;;;;;2.17;0.98;;;;;;;;;;5074551;28;20052;-59
2022/09/24 13:55:01;;;;;;;2.63;0.90;;;;;;;;;;5054409;28;20049;-58
2022/09/24 13:57:28;;;;;;;1.50;0.80;;;;;;;;;;5067167;28;20496;-58
2022/09/24 14:00:02;;;;;;;1.50;0.90;;;;;;;;;;5066837;28;20052;-59
2022/09/24 14:02:31;;;;;;;2.10;0.90;;;;;;;;;;5081483;28;20048;-59
2022/09/24 14:04:57;;;;;;;1.30;0.80;;;;;;;;;;5080123;28;20036;-58
2022/09/24 14:07:23;;;;;;;2.67;1.00;;;;;;;;;;5045155;28;20044;-59
2022/09/24 14:09:50;;;;;;;2.05;0.95;;;;;;;;;;5071535;28;20489;-60
2022/09/24 14:12:21;;;;;;;1.42;0.80;;;;;;;;;;5075434;28;20093;-60
2022/09/24 14:14:56;;;;;;;1.10;0.70;;;;;;;;;;5078799;28;20062;-59
2022/09/24 14:17:22;;;;;;;1.63;0.80;;;;;;;;;;5075947;28;20522;-59
2022/09/24 14:19:52;;;;;;;1.25;0.80;;;;;;;;;;5088365;28;20048;-58
2022/09/24 14:22:24;;;;;;;1.10;0.80;;;;;;;;;;5084075;28;20062;-58
2022/09/24 14:25:16;;;;;;;1.52;0.60;;;;;;;;;;5087437;28;20083;-58
2022/09/24 14:27:45;;;;;;;1.13;0.60;;;;;;;;;;5076022;28;20048;-59
2022/09/24 14:30:24;;;;;;;1.67;0.80;;;;;;;;;;5069235;28;20242;-58
2022/09/24 14:32:57;;;;;;;1.10;0.57;;;;;;;;;;5085678;28;20060;-59
2022/09/24 14:35:29;;;;;;;2.83;0.68;;;;;;;;;;5067008;28;21558;-59
2022/09/24 14:37:57;;;;;;;1.27;0.60;;;;;;;;;;5061308;28;20041;-59
2022/09/24 14:40:23;;;;;;;1.17;0.70;;;;;;;;;;5072281;28;20052;-58
2022/09/24 14:42:52;;;;;;;1.77;0.80;;;;;;;;;;5076278;28;20102;-58
2022/09/24 14:45:26;;;;;;;0.93;0.70;;;;;;;;;;5056829;28;20561;-58
2022/09/24 14:48:01;;;;;;;3.08;0.40;;;;;;;;;;5081057;28;20041;-59
2022/09/24 14:50:30;;;;;;;0.85;0.50;;;;;;;;;;5056214;28;20513;-58
2022/09/24 14:52:56;;;;;;;1.38;0.60;;;;;;;;;;5064388;28;20048;-58
2022/09/24 14:55:34;;;;;;;1.73;0.85;;;;;;;;;;5067513;28;20044;-59
2022/09/24 14:57:59;;;;;;;1.08;0.60;;;;;;;;;;5059189;28;20491;-58
2022/09/24 15:00:26;;;;;;;0.60;0.40;;;;;;;;;;5075385;28;20072;-59
2022/09/24 15:03:01;;;;;;;0.47;0.47;;;;;;;;;;5070864;28;20295;-59
2022/09/24 15:05:28;;;;;;;1.38;0.52;;;;;;;;;;5066231;28;20051;-58